Time;durP1;ratioP1;P1;durP2;ratioP2;P2;SDS_P1;SDS_P2;PMS_P1;PMS_P2;Temp;Humidity;BMP_temperature;BMP_pressure;BME280_temperature;BME280_humidity;BME280_pressure;Samples;Min_cycle;Max_cycle;Signal;HPM_P1;HPM_P2
2020/12/08 00:00:19;;;;;;;20.53;12.00;;;4.80;99.90;;;;;;5000734;28;20280;-95
2020/12/08 00:02:45;;;;;;;18.47;11.67;;;4.70;99.90;;;;;;5000737;28;20265;-95
2020/12/08 00:05:13;;;;;;;18.00;11.20;;;4.80;99.90;;;;;;4999505;28;20216;-95
2020/12/08 00:07:39;;;;;;;20.23;12.03;;;4.80;99.90;;;;;;5000561;28;20182;-95
2020/12/08 00:10:04;;;;;;;23.93;12.73;;;4.90;99.90;;;;;;5000033;28;20619;-95
2020/12/08 00:12:30;;;;;;;18.07;12.03;;;5.00;99.90;;;;;;5000095;28;20186;-91
2020/12/08 00:14:56;;;;;;;20.00;11.27;;;5.10;99.90;;;;;;5000830;28;20205;-91
2020/12/08 00:17:22;;;;;;;20.73;11.90;;;5.10;99.90;;;;;;4997424;28;20177;-92
2020/12/08 00:19:48;;;;;;;18.17;11.10;;;5.00;99.90;;;;;;4997607;28;20181;-90
2020/12/08 00:22:14;;;;;;;19.47;11.67;;;5.10;99.90;;;;;;4997970;28;20222;-94
2020/12/08 00:24:40;;;;;;;19.37;11.73;;;5.00;99.90;;;;;;4998174;28;20205;-95
2020/12/08 00:27:08;;;;;;;21.23;12.67;;;5.00;99.90;;;;;;4998377;28;20634;-95
2020/12/08 00:29:38;;;;;;;17.67;11.43;;;5.00;99.90;;;;;;4998385;28;20224;-95
2020/12/08 00:32:06;;;;;;;17.87;11.50;;;5.00;99.90;;;;;;4997637;28;20202;-96
2020/12/08 00:34:33;;;;;;;18.23;11.30;;;5.00;99.90;;;;;;4997953;28;20193;-94
2020/12/08 00:36:58;;;;;;;18.03;10.93;;;5.00;99.90;;;;;;4999435;28;20174;-94
2020/12/08 00:39:24;;;;;;;16.10;11.33;;;5.10;99.90;;;;;;4998983;28;20178;-96
2020/12/08 00:41:49;;;;;;;18.30;11.60;;;5.10;99.90;;;;;;4997381;28;20273;-94
2020/12/08 00:44:15;;;;;;;18.57;11.17;;;5.00;99.90;;;;;;4998113;28;20181;-91
2020/12/08 00:46:41;;;;;;;15.83;10.97;;;4.80;99.90;;;;;;4996957;28;20185;-91
2020/12/08 00:49:07;;;;;;;17.03;11.43;;;4.70;99.90;;;;;;4996559;28;20206;-91
2020/12/08 00:51:33;;;;;;;16.70;9.70;;;4.50;99.90;;;;;;4996000;28;20185;-90
2020/12/08 00:54:00;;;;;;;16.53;11.50;;;4.40;99.90;;;;;;4996024;28;20293;-91
2020/12/08 00:56:25;;;;;;;15.20;10.97;;;4.40;99.90;;;;;;4995888;28;20170;-93
2020/12/08 00:58:51;;;;;;;18.00;11.60;;;4.20;99.90;;;;;;4995550;28;20190;-90
2020/12/08 01:01:17;;;;;;;16.90;10.53;;;4.00;99.90;;;;;;4995513;28;20193;-92
2020/12/08 01:03:42;;;;;;;16.93;11.10;;;3.90;99.90;;;;;;4995306;28;20220;-95
2020/12/08 01:06:09;;;;;;;17.90;10.97;;;4.00;99.90;;;;;;4994816;28;20193;-94
2020/12/08 01:08:35;;;;;;;18.80;11.53;;;3.90;99.90;;;;;;4995461;28;20182;-94
2020/12/08 01:11:02;;;;;;;18.50;11.17;;;3.80;99.90;;;;;;4994884;28;20236;-94
2020/12/08 01:13:27;;;;;;;19.33;11.33;;;3.80;99.90;;;;;;4995540;28;20170;-94
2020/12/08 01:15:53;;;;;;;19.20;11.97;;;3.70;99.90;;;;;;4994770;28;20823;-91
2020/12/08 01:18:19;;;;;;;15.03;10.27;;;3.70;99.90;;;;;;4994768;28;20613;-94
2020/12/08 01:20:45;;;;;;;17.27;11.17;;;3.70;99.90;;;;;;4994638;28;20192;-92
2020/12/08 01:23:12;;;;;;;19.43;10.97;;;3.90;99.90;;;;;;4995464;28;20713;-91
2020/12/08 01:25:38;;;;;;;19.70;12.03;;;3.90;99.90;;;;;;4996647;28;20178;-92
2020/12/08 01:28:04;;;;;;;18.17;11.97;;;3.90;99.90;;;;;;4997976;28;20281;-93
2020/12/08 01:30:29;;;;;;;20.63;11.33;;;3.90;99.90;;;;;;4997402;28;20217;-91
2020/12/08 01:32:55;;;;;;;17.67;10.87;;;3.90;99.90;;;;;;4996728;28;20518;-93
2020/12/08 01:35:21;;;;;;;19.70;11.43;;;3.90;99.90;;;;;;4997298;28;20194;-91
2020/12/08 01:37:47;;;;;;;17.93;10.60;;;3.90;99.90;;;;;;4996626;28;20181;-90
2020/12/08 01:40:13;;;;;;;17.63;11.43;;;4.00;99.90;;;;;;4995318;28;20661;-90
2020/12/08 01:42:39;;;;;;;18.50;10.80;;;4.10;99.90;;;;;;4995529;28;20181;-95
2020/12/08 01:45:06;;;;;;;18.20;11.13;;;4.30;99.90;;;;;;4994184;28;20178;-95
2020/12/08 01:47:32;;;;;;;18.90;11.63;;;4.30;99.90;;;;;;4994968;28;20190;-90
2020/12/08 01:49:58;;;;;;;17.67;10.90;;;4.30;99.90;;;;;;4994427;28;20229;-90
2020/12/08 01:52:25;;;;;;;20.77;11.43;;;4.40;99.90;;;;;;4994427;28;20181;-91
2020/12/08 01:54:53;;;;;;;16.63;10.23;;;4.30;99.90;;;;;;4996140;28;20240;-92
2020/12/08 01:57:18;;;;;;;17.23;10.93;;;4.20;99.90;;;;;;4997832;28;20182;-95
2020/12/08 01:59:44;;;;;;;18.53;11.33;;;4.30;99.90;;;;;;4999605;28;20182;-95
2020/12/08 02:02:10;;;;;;;19.87;11.03;;;4.40;99.90;;;;;;4997254;28;20277;-95
2020/12/08 02:04:36;;;;;;;19.00;11.27;;;4.40;99.90;;;;;;4995119;28;20198;-94
2020/12/08 02:07:03;;;;;;;18.47;11.73;;;4.50;99.90;;;;;;4996153;28;20174;-94
2020/12/08 02:09:34;;;;;;;19.80;11.50;;;4.70;99.90;;;;;;4995762;28;20215;-94
2020/12/08 02:12:00;;;;;;;19.53;11.43;;;4.80;99.90;;;;;;4995031;28;20185;-95
2020/12/08 02:14:26;;;;;;;19.73;11.83;;;4.80;99.90;;;;;;4994227;28;20206;-94
2020/12/08 02:16:51;;;;;;;20.10;11.33;;;4.80;99.90;;;;;;4994083;28;20260;-95
2020/12/08 02:19:17;;;;;;;20.07;11.07;;;4.70;99.90;;;;;;4994216;28;20694;-90
2020/12/08 02:21:42;;;;;;;19.07;10.90;;;4.80;99.90;;;;;;4994669;28;20178;-91
2020/12/08 02:24:08;;;;;;;20.03;11.50;;;4.80;99.90;;;;;;4998405;28;20210;-90
2020/12/08 02:26:34;;;;;;;17.87;11.50;;;4.90;99.90;;;;;;4999214;28;20177;-95
2020/12/08 02:28:59;;;;;;;16.37;10.13;;;4.90;99.90;;;;;;4998551;28;20208;-95
2020/12/08 02:31:25;;;;;;;18.03;11.70;;;4.90;99.90;;;;;;4999553;28;20271;-95
2020/12/08 02:33:51;;;;;;;20.80;12.00;;;4.80;99.90;;;;;;4995778;28;20201;-94
2020/12/08 02:36:16;;;;;;;16.47;10.90;;;4.80;99.90;;;;;;4996543;28;20170;-95
2020/12/08 02:38:42;;;;;;;18.80;11.53;;;4.90;99.90;;;;;;4997362;28;20189;-95
2020/12/08 02:41:08;;;;;;;19.27;11.20;;;4.80;99.90;;;;;;5000460;28;20192;-95
2020/12/08 02:43:33;;;;;;;18.90;10.87;;;4.90;99.90;;;;;;4998866;28;20245;-94
2020/12/08 02:45:59;;;;;;;20.27;11.10;;;4.70;99.90;;;;;;4996790;28;20643;-95
2020/12/08 02:48:26;;;;;;;19.23;10.97;;;4.60;99.90;;;;;;4996464;28;20588;-95
2020/12/08 02:50:52;;;;;;;16.83;10.73;;;4.60;99.90;;;;;;4997237;28;20181;-90
2020/12/08 02:53:18;;;;;;;17.10;10.63;;;4.60;99.90;;;;;;4998431;28;20571;-91
2020/12/08 02:55:48;;;;;;;20.03;12.03;;;4.70;99.90;;;;;;5002897;28;20178;-91
2020/12/08 02:58:15;;;;;;;20.00;11.10;;;4.80;99.90;;;;;;5000631;28;20177;-91
2020/12/08 03:00:41;;;;;;;21.13;12.37;;;4.80;99.90;;;;;;4999402;28;20247;-91
2020/12/08 03:03:07;;;;;;;20.50;11.13;;;4.80;99.90;;;;;;4999061;28;20177;-91
2020/12/08 03:05:32;;;;;;;21.73;11.40;;;4.80;99.90;;;;;;4999034;28;20278;-94
2020/12/08 03:07:58;;;;;;;19.77;11.93;;;4.70;99.90;;;;;;4998741;28;20248;-94
2020/12/08 03:10:24;;;;;;;19.27;10.70;;;4.60;99.90;;;;;;4999462;28;20313;-95
2020/12/08 03:12:49;;;;;;;20.07;11.67;;;4.70;99.90;;;;;;4999464;28;20186;-95
2020/12/08 03:15:15;;;;;;;19.57;12.40;;;4.70;99.90;;;;;;4999364;28;20197;-94
2020/12/08 03:17:41;;;;;;;19.83;11.77;;;4.60;99.90;;;;;;4999172;28;20214;-94
2020/12/08 03:20:07;;;;;;;17.83;11.23;;;4.60;99.90;;;;;;4998589;28;20174;-95
2020/12/08 03:22:32;;;;;;;18.83;11.83;;;4.70;99.90;;;;;;4998921;28;20189;-91
2020/12/08 03:25:01;;;;;;;19.20;11.63;;;4.70;99.90;;;;;;4996699;28;20186;-91
2020/12/08 03:27:26;;;;;;;20.30;12.00;;;4.70;99.90;;;;;;4997004;28;20205;-91
2020/12/08 03:29:52;;;;;;;18.20;11.30;;;4.90;99.90;;;;;;4996756;28;20222;-90
2020/12/08 03:32:18;;;;;;;19.17;12.20;;;4.90;99.90;;;;;;4997322;28;20174;-90
2020/12/08 03:34:43;;;;;;;19.53;11.10;;;4.90;99.90;;;;;;4997171;28;20560;-91
2020/12/08 03:37:09;;;;;;;21.30;12.07;;;4.90;99.90;;;;;;4998597;28;20521;-90
2020/12/08 03:39:36;;;;;;;21.17;12.07;;;4.90;99.90;;;;;;4998896;28;20186;-92
2020/12/08 03:42:03;;;;;;;36.10;17.97;;;4.80;99.90;;;;;;4997836;28;20186;-91
2020/12/08 03:44:29;;;;;;;20.47;12.87;;;5.00;99.90;;;;;;4998690;28;20173;-91
2020/12/08 03:47:03;;;;;;;18.50;11.70;;;5.00;99.90;;;;;;4996936;28;20229;-95
2020/12/08 03:49:29;;;;;;;20.53;12.43;;;5.10;99.90;;;;;;4997056;28;20217;-95
2020/12/08 03:51:56;;;;;;;20.33;12.30;;;5.20;99.90;;;;;;4996465;28;20184;-94
2020/12/08 03:54:21;;;;;;;21.07;12.33;;;5.10;99.90;;;;;;4996420;28;20209;-95
2020/12/08 03:56:48;;;;;;;20.10;12.13;;;5.20;99.90;;;;;;4996900;28;20174;-95
2020/12/08 03:59:17;;;;;;;21.33;12.17;;;5.20;99.90;;;;;;4996621;28;20177;-92
2020/12/08 04:01:49;;;;;;;22.20;11.90;;;5.10;99.90;;;;;;4996747;28;20220;-91
2020/12/08 04:04:16;;;;;;;20.30;12.20;;;4.90;99.90;;;;;;4996310;28;20186;-92
2020/12/08 04:06:41;;;;;;;21.97;12.73;;;4.80;99.90;;;;;;4995404;28;20174;-92
2020/12/08 04:09:10;;;;;;;21.70;11.80;;;4.90;99.90;;;;;;4995845;28;20287;-92
2020/12/08 04:11:36;;;;;;;19.60;11.07;;;5.20;99.90;;;;;;4996120;28;20181;-91
2020/12/08 04:14:02;;;;;;;20.73;12.43;;;5.20;99.90;;;;;;4996299;28;20205;-91
2020/12/08 04:16:30;;;;;;;20.03;10.73;;;5.10;99.90;;;;;;4996179;28;20192;-90
2020/12/08 04:18:56;;;;;;;20.17;11.93;;;5.10;99.90;;;;;;4997522;28;20189;-91
2020/12/08 04:21:26;;;;;;;21.80;11.93;;;5.10;99.90;;;;;;4997499;28;20209;-92
2020/12/08 04:23:54;;;;;;;20.70;11.33;;;4.90;99.90;;;;;;5001258;28;20209;-95
2020/12/08 04:26:20;;;;;;;19.13;11.50;;;4.90;99.90;;;;;;5000705;28;20209;-95
2020/12/08 04:28:46;;;;;;;22.47;12.13;;;5.00;99.90;;;;;;4996748;28;20702;-95
2020/12/08 04:31:16;;;;;;;20.30;10.80;;;5.10;99.90;;;;;;4996314;28;20174;-92
2020/12/08 04:33:43;;;;;;;21.63;11.57;;;5.10;99.90;;;;;;4996128;28;20197;-92
2020/12/08 04:36:13;;;;;;;18.67;10.87;;;5.00;99.90;;;;;;4996732;28;20201;-95
2020/12/08 04:38:39;;;;;;;17.87;10.97;;;5.00;99.90;;;;;;4997553;28;20704;-94
2020/12/08 04:41:05;;;;;;;21.63;11.83;;;4.90;99.90;;;;;;4995529;28;20182;-95
2020/12/08 04:43:31;;;;;;;18.17;11.23;;;5.10;99.90;;;;;;4995925;28;20328;-95
2020/12/08 04:45:57;;;;;;;20.07;10.50;;;5.20;99.90;;;;;;4996466;28;20174;-94
2020/12/08 04:48:23;;;;;;;18.37;11.17;;;5.00;99.90;;;;;;4995426;28;20214;-95
2020/12/08 04:50:49;;;;;;;20.67;11.20;;;4.90;99.90;;;;;;4994957;28;20703;-94
2020/12/08 04:53:16;;;;;;;19.83;10.60;;;5.00;99.90;;;;;;4994762;28;20287;-95
2020/12/08 04:55:41;;;;;;;23.70;11.73;;;5.10;99.90;;;;;;4996216;28;20196;-94
2020/12/08 04:58:09;;;;;;;18.50;10.43;;;5.00;99.90;;;;;;5000754;28;20644;-93
2020/12/08 05:00:42;;;;;;;20.30;11.90;;;4.90;99.90;;;;;;5002919;28;20189;-94
2020/12/08 05:03:08;;;;;;;21.03;11.63;;;4.80;99.90;;;;;;5001342;28;20174;-95
2020/12/08 05:05:42;;;;;;;17.20;9.57;;;4.70;99.90;;;;;;5002868;28;20297;-94
2020/12/08 05:08:12;;;;;;;20.27;11.27;;;4.60;99.90;;;;;;5000817;28;20225;-91
2020/12/08 05:10:38;;;;;;;23.00;12.27;;;4.70;99.90;;;;;;4996217;28;20241;-92
2020/12/08 05:13:07;;;;;;;19.47;11.00;;;4.70;99.90;;;;;;4985766;28;20651;-91
2020/12/08 05:15:34;;;;;;;18.00;11.07;;;4.60;99.90;;;;;;4958809;28;20248;-90
2020/12/08 05:18:10;;;;;;;21.33;11.40;;;4.60;99.90;;;;;;4958494;28;20664;-92
2020/12/08 05:20:36;;;;;;;20.60;10.47;;;4.50;99.90;;;;;;4960532;28;20190;-91
2020/12/08 05:23:02;;;;;;;23.10;11.40;;;4.60;99.90;;;;;;4960745;28;20206;-91
2020/12/08 05:25:30;;;;;;;21.90;10.80;;;4.60;99.90;;;;;;4968575;28;20186;-91
2020/12/08 05:27:58;;;;;;;19.87;10.43;;;4.70;99.90;;;;;;4972281;28;20190;-95
2020/12/08 05:30:25;;;;;;;18.33;10.60;;;4.70;99.90;;;;;;4971446;28;20217;-96
2020/12/08 05:32:52;;;;;;;19.50;10.90;;;4.80;99.90;;;;;;4970844;28;20174;-94
2020/12/08 05:35:25;;;;;;;19.00;11.60;;;4.70;99.90;;;;;;4969892;28;20186;-96
2020/12/08 05:37:53;;;;;;;21.37;10.73;;;4.60;99.90;;;;;;4969571;28;20190;-95
2020/12/08 05:40:23;;;;;;;18.63;10.70;;;4.60;99.90;;;;;;4969835;28;20284;-95
2020/12/08 05:42:52;;;;;;;18.33;10.10;;;4.60;99.90;;;;;;4969389;28;20178;-95
2020/12/08 05:45:25;;;;;;;19.37;10.10;;;4.80;99.90;;;;;;5004935;28;20190;-95
2020/12/08 05:47:55;;;;;;;18.27;10.70;;;4.70;99.90;;;;;;5004748;28;20182;-94
2020/12/08 05:50:25;;;;;;;19.30;10.60;;;4.70;99.90;;;;;;5004372;28;20229;-94
2020/12/08 05:52:58;;;;;;;20.20;11.10;;;4.70;99.90;;;;;;4988103;28;20237;-93
2020/12/08 05:55:33;;;;;;;18.63;10.63;;;4.60;99.90;;;;;;5004449;28;20246;-91
2020/12/08 05:58:05;;;;;;;19.13;11.43;;;4.60;99.90;;;;;;5004325;28;20630;-91
2020/12/08 06:00:33;;;;;;;20.20;10.80;;;4.80;99.90;;;;;;5003779;28;20186;-92
2020/12/08 06:03:15;;;;;;;22.10;10.27;;;4.80;99.90;;;;;;5001967;28;20204;-94
2020/12/08 06:05:43;;;;;;;17.73;10.10;;;4.90;99.90;;;;;;5001326;28;20193;-94
2020/12/08 06:08:19;;;;;;;19.63;10.97;;;4.80;99.90;;;;;;4999657;28;20213;-94
2020/12/08 06:10:48;;;;;;;20.30;10.57;;;4.70;99.90;;;;;;4997023;28;20244;-94
2020/12/08 06:13:25;;;;;;;19.37;10.67;;;4.60;99.90;;;;;;5001682;28;20178;-93
2020/12/08 06:15:51;;;;;;;20.23;11.50;;;4.60;99.90;;;;;;5002981;28;20189;-93
2020/12/08 06:18:30;;;;;;;18.97;10.30;;;4.50;99.90;;;;;;5000643;28;20181;-94
2020/12/08 06:20:56;;;;;;;18.43;10.00;;;4.50;99.90;;;;;;5000733;28;20269;-93
2020/12/08 06:23:24;;;;;;;18.10;10.77;;;4.40;99.90;;;;;;4999275;28;20260;-92
2020/12/08 06:26:05;;;;;;;18.90;10.13;;;4.40;99.90;;;;;;4999968;28;20173;-92
2020/12/08 06:28:31;;;;;;;19.47;11.20;;;4.50;99.90;;;;;;4983212;28;20189;-92
2020/12/08 06:31:07;;;;;;;19.13;10.20;;;4.30;99.90;;;;;;4998176;28;20222;-92
2020/12/08 06:33:54;;;;;;;25.20;10.40;;;4.20;99.90;;;;;;4999382;28;20231;-92
2020/12/08 06:36:23;;;;;;;20.63;10.77;;;4.10;99.90;;;;;;5000143;28;20185;-92
2020/12/08 06:38:59;;;;;;;17.77;10.20;;;4.00;99.90;;;;;;4999294;28;20205;-91
2020/12/08 06:41:33;;;;;;;19.10;10.60;;;4.00;99.90;;;;;;4998597;28;20177;-93
2020/12/08 06:43:59;;;;;;;23.37;11.87;;;4.00;99.90;;;;;;4999023;28;20229;-93
2020/12/08 06:46:26;;;;;;;15.50;10.43;;;3.90;99.90;;;;;;5003444;28;20642;-92
2020/12/08 06:49:22;;;;;;;20.70;11.23;;;3.90;99.90;;;;;;5006724;28;20205;-93
2020/12/08 07:57:31;;;;;;;26.73;14.10;;;3.40;99.90;;;;;;6049717;23;20178;-87
2020/12/08 11:04:31;;;;;;;26.10;15.00;;;9.80;99.90;;;;;;5027904;23;20267;-86
2020/12/08 11:06:58;;;;;;;24.37;14.77;;;9.60;99.90;;;;;;4996522;28;20192;-87
2020/12/08 11:09:25;;;;;;;23.73;14.57;;;9.70;99.90;;;;;;4996485;28;20259;-90
2020/12/08 11:11:50;;;;;;;20.80;14.63;;;9.80;99.90;;;;;;4999859;28;20207;-91
2020/12/08 11:14:16;;;;;;;23.07;13.80;;;10.10;99.60;;;;;;4997556;28;20181;-92
2020/12/08 11:16:42;;;;;;;24.37;14.70;;;10.70;98.60;;;;;;5000629;28;20181;-89
2020/12/08 11:19:07;;;;;;;24.00;13.10;;;10.70;98.50;;;;;;5000194;28;20552;-90
2020/12/08 11:21:33;;;;;;;20.53;13.13;;;11.30;98.00;;;;;;5000294;28;20208;-89
2020/12/08 11:23:59;;;;;;;20.83;13.13;;;11.90;96.50;;;;;;4999931;28;20187;-88
2020/12/08 11:26:28;;;;;;;19.13;12.53;;;11.80;96.10;;;;;;5000274;28;20200;-88
2020/12/08 11:28:53;;;;;;;18.30;12.67;;;11.90;96.10;;;;;;4999913;28;20179;-88
2020/12/08 11:31:19;;;;;;;19.20;13.03;;;11.90;95.60;;;;;;5000170;28;20198;-88
2020/12/08 11:33:45;;;;;;;22.10;12.63;;;11.70;96.00;;;;;;5000096;28;20184;-89
2020/12/08 11:36:12;;;;;;;19.13;13.67;;;11.90;95.60;;;;;;4999899;28;20189;-89
2020/12/08 11:38:38;;;;;;;18.43;12.43;;;12.30;95.30;;;;;;4999749;28;20179;-90
2020/12/08 11:41:03;;;;;;;19.03;12.67;;;13.00;93.90;;;;;;4999881;28;20179;-88
2020/12/08 11:43:30;;;;;;;19.20;12.60;;;13.50;93.00;;;;;;4999893;28;20293;-90
2020/12/08 11:45:55;;;;;;;17.60;13.23;;;13.90;92.50;;;;;;5000101;28;20275;-87
2020/12/08 11:48:25;;;;;;;19.33;12.57;;;14.30;91.20;;;;;;4999452;28;20220;-88
2020/12/08 11:50:52;;;;;;;19.77;13.63;;;15.00;90.00;;;;;;4999600;28;20327;-87
2020/12/08 11:53:17;;;;;;;19.80;12.83;;;15.10;88.40;;;;;;4999324;28;20204;-88
2020/12/08 11:55:43;;;;;;;19.13;12.63;;;15.40;85.80;;;;;;4999654;28;20181;-87
2020/12/08 11:58:09;;;;;;;18.73;12.63;;;15.20;85.40;;;;;;5000124;28;20182;-89
2020/12/08 12:00:34;;;;;;;17.70;12.03;;;14.60;86.80;;;;;;4999441;28;20196;-89
2020/12/08 12:03:00;;;;;;;22.33;13.10;;;14.30;86.70;;;;;;4999342;28;20684;-89
2020/12/08 12:05:26;;;;;;;18.47;12.83;;;13.90;88.40;;;;;;4999295;28;20175;-87
2020/12/08 12:07:51;;;;;;;19.30;12.97;;;13.20;90.40;;;;;;4999269;28;20286;-87
2020/12/08 12:10:17;;;;;;;19.63;13.60;;;12.90;90.40;;;;;;4999204;28;20220;-87
2020/12/08 12:12:43;;;;;;;24.33;13.63;;;12.90;90.40;;;;;;4999829;28;20177;-87
2020/12/08 12:15:08;;;;;;;22.83;13.30;;;12.30;91.10;;;;;;5000802;28;20212;-88
2020/12/08 12:17:34;;;;;;;23.27;14.47;;;12.10;91.90;;;;;;5000839;28;20174;-87
2020/12/08 12:20:00;;;;;;;23.73;14.00;;;11.80;92.20;;;;;;4999019;28;20185;-87
2020/12/08 12:22:26;;;;;;;20.37;12.80;;;11.70;92.30;;;;;;4998790;28;20184;-87
2020/12/08 12:24:54;;;;;;;37.63;14.30;;;11.50;92.80;;;;;;4999079;28;20175;-87
2020/12/08 12:27:20;;;;;;;23.40;12.63;;;11.40;93.00;;;;;;4997905;28;20208;-89
2020/12/08 12:29:45;;;;;;;21.33;12.37;;;11.40;93.00;;;;;;4999128;28;20211;-89
2020/12/08 12:32:11;;;;;;;20.10;12.97;;;11.40;93.20;;;;;;4998966;28;20180;-91
2020/12/08 12:34:37;;;;;;;22.90;12.97;;;10.90;93.80;;;;;;4998990;28;20180;-88
2020/12/08 12:37:03;;;;;;;21.20;13.07;;;10.70;94.20;;;;;;4998645;28;20645;-87
2020/12/08 12:39:29;;;;;;;22.90;12.27;;;10.30;95.30;;;;;;4998897;28;20645;-89
2020/12/08 12:41:54;;;;;;;21.30;12.73;;;10.20;95.80;;;;;;4998839;28;20223;-91
2020/12/08 12:44:20;;;;;;;22.40;12.33;;;10.40;95.50;;;;;;4998871;28;20187;-91
2020/12/08 12:46:51;;;;;;;16.23;11.63;;;10.40;95.20;;;;;;4998885;28;20268;-91
2020/12/08 12:49:16;;;;;;;25.23;13.40;;;10.10;95.50;;;;;;4998537;28;20215;-91
2020/12/08 12:51:42;;;;;;;21.50;12.53;;;10.10;96.00;;;;;;4998323;28;20183;-91
2020/12/08 12:54:07;;;;;;;19.47;11.77;;;10.20;95.60;;;;;;4998601;28;20319;-91
2020/12/08 12:56:33;;;;;;;17.63;11.30;;;10.20;95.90;;;;;;4998377;28;20184;-91
2020/12/08 12:58:59;;;;;;;21.57;11.80;;;10.10;95.80;;;;;;4998598;28;20231;-90
2020/12/08 13:01:24;;;;;;;18.63;11.23;;;10.20;95.50;;;;;;4998478;28;20184;-90
2020/12/08 13:03:50;;;;;;;15.10;9.03;;;10.00;95.50;;;;;;4998384;28;20208;-91
2020/12/08 13:06:16;;;;;;;14.10;9.30;;;9.90;95.30;;;;;;4998012;28;20631;-87
2020/12/08 13:08:42;;;;;;;17.80;10.00;;;10.00;95.30;;;;;;4998413;28;20533;-87
2020/12/08 13:11:09;;;;;;;16.43;10.77;;;9.80;95.40;;;;;;4997953;28;20227;-87
2020/12/08 13:13:36;;;;;;;20.07;12.10;;;9.60;96.10;;;;;;4998365;28;20174;-87
2020/12/08 13:16:03;;;;;;;17.10;10.90;;;9.40;96.40;;;;;;4998205;28;20625;-87
2020/12/08 13:18:29;;;;;;;24.90;12.57;;;9.40;96.80;;;;;;4997758;28;20623;-88
2020/12/08 13:20:57;;;;;;;21.50;11.93;;;9.30;97.30;;;;;;4998040;28;20265;-90
2020/12/08 13:23:23;;;;;;;21.83;12.87;;;9.50;96.90;;;;;;4997897;28;20177;-91
2020/12/08 13:25:49;;;;;;;24.30;12.87;;;9.30;97.50;;;;;;4998230;28;20663;-90
2020/12/08 13:28:15;;;;;;;22.07;13.20;;;9.20;97.90;;;;;;4997958;28;20185;-90
2020/12/08 13:30:40;;;;;;;21.73;12.43;;;9.20;97.80;;;;;;4997988;28;20290;-90
2020/12/08 13:33:06;;;;;;;23.77;14.13;;;9.00;98.50;;;;;;4997898;28;20265;-91
2020/12/08 13:35:32;;;;;;;20.33;13.90;;;9.30;97.90;;;;;;4997599;28;20184;-91
2020/12/08 13:37:57;;;;;;;21.57;13.10;;;9.30;98.00;;;;;;4997563;28;20342;-89
2020/12/08 13:40:23;;;;;;;17.13;12.00;;;9.10;98.20;;;;;;4997620;28;20192;-88
2020/12/08 13:42:48;;;;;;;20.70;11.90;;;9.20;98.30;;;;;;4997678;28;20224;-86
2020/12/08 13:45:14;;;;;;;23.27;12.97;;;9.00;98.30;;;;;;4997926;28;20173;-90
2020/12/08 13:47:40;;;;;;;20.63;12.37;;;9.00;98.50;;;;;;4997425;28;20638;-87
2020/12/08 13:50:06;;;;;;;22.93;12.57;;;9.20;97.90;;;;;;4997296;28;20202;-87
2020/12/08 13:52:32;;;;;;;21.17;12.87;;;9.20;97.90;;;;;;4997193;28;20223;-88
2020/12/08 13:54:58;;;;;;;19.07;12.47;;;9.00;98.30;;;;;;4997374;28;20554;-88
2020/12/08 13:57:24;;;;;;;22.10;12.67;;;8.90;98.40;;;;;;4997416;28;20191;-88
2020/12/08 13:59:50;;;;;;;16.83;11.70;;;8.70;98.90;;;;;;4997644;28;20206;-91
2020/12/08 14:02:19;;;;;;;19.83;12.47;;;8.60;98.90;;;;;;4997430;28;20642;-91
2020/12/08 14:04:45;;;;;;;19.20;12.57;;;8.60;99.20;;;;;;4997057;28;20203;-91
2020/12/08 14:07:11;;;;;;;20.33;12.10;;;8.40;99.70;;;;;;4997084;28;20178;-91
2020/12/08 14:09:37;;;;;;;20.50;12.63;;;8.40;99.80;;;;;;4997191;28;20266;-88
2020/12/08 14:12:05;;;;;;;23.70;12.97;;;8.40;99.80;;;;;;4997374;28;20186;-87
2020/12/08 14:14:32;;;;;;;20.13;12.87;;;8.60;99.90;;;;;;4997244;28;20662;-88
2020/12/08 14:16:58;;;;;;;17.67;12.30;;;8.70;99.50;;;;;;4997651;28;20177;-88
2020/12/08 14:19:24;;;;;;;20.33;12.67;;;8.50;99.90;;;;;;4996734;28;20201;-88
2020/12/08 14:21:50;;;;;;;20.23;11.93;;;8.50;99.90;;;;;;4997033;28;20178;-88
2020/12/08 14:24:21;;;;;;;18.60;11.67;;;8.40;99.90;;;;;;4997031;28;20173;-88
2020/12/08 14:26:47;;;;;;;18.53;11.00;;;8.50;99.50;;;;;;4996783;28;20268;-87
2020/12/08 14:29:14;;;;;;;19.00;10.87;;;8.60;99.10;;;;;;4997081;28;20277;-88
2020/12/08 14:31:40;;;;;;;16.83;10.70;;;8.60;98.90;;;;;;4998295;28;20181;-88
2020/12/08 14:34:06;;;;;;;16.37;10.90;;;8.40;98.90;;;;;;4996511;28;20268;-88
2020/12/08 14:36:34;;;;;;;19.23;11.93;;;8.30;99.30;;;;;;4996967;28;20223;-90
2020/12/08 14:39:01;;;;;;;21.63;12.47;;;8.30;99.40;;;;;;4998131;28;20263;-88
2020/12/08 14:41:27;;;;;;;18.83;11.70;;;8.20;99.70;;;;;;4998510;28;20526;-91
2020/12/08 14:43:53;;;;;;;23.77;12.70;;;8.10;99.90;;;;;;4999141;28;20661;-90
2020/12/08 14:46:29;;;;;;;21.37;13.07;;;8.00;99.90;;;;;;4980753;28;20658;-91
2020/12/08 14:48:56;;;;;;;19.10;11.67;;;8.00;99.90;;;;;;4977408;28;20169;-90
2020/12/08 14:51:25;;;;;;;21.37;12.17;;;7.60;99.90;;;;;;4981468;28;20634;-91
2020/12/08 14:53:52;;;;;;;23.80;12.77;;;7.50;99.90;;;;;;4981101;28;20224;-90
2020/12/08 14:56:22;;;;;;;29.27;12.77;;;7.40;99.90;;;;;;4981284;28;20209;-90
2020/12/08 14:58:51;;;;;;;18.80;11.80;;;7.30;99.90;;;;;;4981097;28;20173;-91
2020/12/08 15:01:18;;;;;;;23.43;11.93;;;7.30;99.90;;;;;;4981079;28;20188;-91
2020/12/08 15:03:44;;;;;;;25.77;12.30;;;7.20;99.90;;;;;;4981432;28;20191;-92
2020/12/08 15:06:12;;;;;;;19.13;11.23;;;7.10;99.90;;;;;;4981363;28;20186;-90
2020/12/08 15:08:41;;;;;;;21.63;11.20;;;7.30;99.90;;;;;;4981131;28;20173;-91
2020/12/08 15:11:10;;;;;;;22.97;11.47;;;7.10;99.90;;;;;;4981432;28;20205;-91
2020/12/08 15:13:35;;;;;;;22.33;10.80;;;7.10;99.90;;;;;;4980892;28;20202;-90
2020/12/08 15:16:03;;;;;;;44.30;13.80;;;7.00;99.90;;;;;;4980794;28;20256;-90
2020/12/08 15:18:30;;;;;;;25.03;12.07;;;6.90;99.90;;;;;;4980800;28;20174;-88
2020/12/08 15:20:56;;;;;;;28.47;11.60;;;7.00;99.90;;;;;;4980915;28;20216;-89
2020/12/08 15:23:25;;;;;;;21.47;11.40;;;6.90;99.90;;;;;;4981176;28;20241;-89
2020/12/08 15:25:54;;;;;;;20.50;11.77;;;6.80;99.90;;;;;;4980860;28;20171;-91
2020/12/08 15:28:21;;;;;;;24.40;11.93;;;6.90;99.90;;;;;;4981137;28;20181;-91
2020/12/08 15:30:53;;;;;;;42.90;13.70;;;6.80;99.90;;;;;;4980480;28;20216;-92
2020/12/08 15:33:18;;;;;;;24.43;11.93;;;6.90;99.90;;;;;;4980498;28;20306;-92
2020/12/08 15:35:46;;;;;;;25.60;12.60;;;6.70;99.90;;;;;;4980691;28;20276;-91
2020/12/08 15:38:12;;;;;;;24.87;12.97;;;6.50;99.90;;;;;;4980854;28;20182;-91
2020/12/08 15:40:38;;;;;;;24.40;13.47;;;6.30;99.90;;;;;;4980465;28;20182;-92
2020/12/08 15:43:03;;;;;;;24.83;13.43;;;6.30;99.90;;;;;;4980554;28;20182;-88
2020/12/08 15:45:29;;;;;;;29.57;15.07;;;6.30;99.90;;;;;;4980336;28;20188;-90
2020/12/08 15:47:54;;;;;;;23.20;14.43;;;6.20;99.90;;;;;;4980449;28;20170;-90
2020/12/08 15:50:23;;;;;;;22.93;14.27;;;6.30;99.90;;;;;;4980047;28;20716;-86
2020/12/08 15:52:49;;;;;;;26.40;14.73;;;6.20;99.90;;;;;;4980457;28;20284;-88
2020/12/08 15:55:15;;;;;;;26.70;15.33;;;6.10;99.90;;;;;;4980517;28;20185;-92
2020/12/08 15:57:41;;;;;;;26.47;15.00;;;6.00;99.90;;;;;;4980028;28;20177;-91
2020/12/08 16:00:08;;;;;;;25.63;14.77;;;6.10;99.90;;;;;;4979665;28;20182;-89
2020/12/08 16:02:42;;;;;;;30.27;16.63;;;6.10;99.90;;;;;;4980161;28;20256;-90
2020/12/08 16:05:08;;;;;;;24.00;14.07;;;6.10;99.90;;;;;;4980248;28;20338;-88
2020/12/08 16:07:34;;;;;;;29.93;15.33;;;6.20;99.90;;;;;;4980048;28;20174;-89
2020/12/08 16:10:01;;;;;;;26.50;15.93;;;6.20;99.90;;;;;;4980083;28;20202;-89
2020/12/08 16:12:26;;;;;;;35.20;15.47;;;6.20;99.90;;;;;;4980205;28;20229;-89
2020/12/08 16:14:52;;;;;;;30.23;14.93;;;6.00;99.90;;;;;;4979669;28;20190;-90
2020/12/08 16:17:18;;;;;;;26.87;15.50;;;6.00;99.90;;;;;;4980056;28;20268;-90
2020/12/08 16:19:43;;;;;;;26.20;15.07;;;6.00;99.90;;;;;;4980019;28;20174;-92
2020/12/08 16:22:09;;;;;;;33.13;16.40;;;6.00;99.90;;;;;;4979635;28;20701;-89
2020/12/08 16:24:34;;;;;;;26.17;15.57;;;6.00;99.90;;;;;;4979751;28;20209;-89
2020/12/08 16:27:00;;;;;;;28.50;15.00;;;5.90;99.90;;;;;;4979606;28;20193;-91
2020/12/08 16:29:26;;;;;;;30.40;16.50;;;5.80;99.90;;;;;;4979493;28;20201;-90
2020/12/08 16:31:58;;;;;;;27.90;15.83;;;6.10;99.90;;;;;;4979544;28;20533;-91
2020/12/08 16:34:23;;;;;;;28.27;15.23;;;6.00;99.90;;;;;;4979738;28;20189;-91
2020/12/08 16:36:50;;;;;;;30.93;16.37;;;5.70;99.90;;;;;;4979287;28;20269;-91
2020/12/08 16:39:15;;;;;;;36.07;17.80;;;5.80;99.90;;;;;;4979597;28;20623;-92
2020/12/08 16:41:41;;;;;;;31.30;16.57;;;5.80;99.90;;;;;;4979502;28;20265;-92
2020/12/08 16:44:07;;;;;;;27.63;16.33;;;5.70;99.90;;;;;;4979627;28;20186;-92